Aeroporto :
LOGIN :

Iscrizione | Disclaimer

   EN    FR    IT 

 










Sommario :    VFR   VFR Marginale   IFR   IFR Intensivo   IFR Molto Intensivo
Visibilità : 
Base nubi : 
>= 8 km
>= 3000ft
5 / 8 km
1000 / 3000 ft
1500m / 5 km
500 / 1000 ft
800 / 1500m
200 / 500 ft
< 800m
< 200 ft
Simboli :   Temporali  Nebbia  Neve Forte  Precipitazioni Forti  Vento > 20 kt
SIGMETs :   Varie  Temporali  Ghiacco  Turbolenza  Onda orograficha  Ceneri Vulcaniche






- Altitudine del aeroporto : 726 ft
- Codice IATA : DIJ


LFSD - Dijon

ULTIMO METAR :
  • 012100Z AUTO 33005KT CAVOK 04/M04 Q1015

METARs OBSOLETI :
  • 012030Z AUTO 32004KT CAVOK 05/M04 Q1015
  • 012000Z AUTO 35005KT CAVOK 06/M03 Q1015
  • 011930Z AUTO 02003KT CAVOK 07/M04 Q1015
  • 011900Z AUTO 02003KT CAVOK 07/M04 Q1015
  • 011830Z AUTO 03003KT CAVOK 09/M04 Q1015

Previsioni scadute.



MetMap, La meteo Aeronautica in un colpo d'occhio ! - Copyright ORBIFLY Dicembre 2007 - Disclaimer

ORBIFLY MET'MAP TEAM :

Programmazione e sviluppo : Alexandra Zaïnal
Concezione : Baudouin d'Aumeries
Aiuto per la programmazione : Marc-Olivier Méhu
Supporto tecnico e logistico : Manuel Goepfert
Aiuto per la traduzione : Arnaldo La Scala

Contatto : metmap@orbifly.com




FONTI E CREDITI :

   NOAA